Time;durP1;ratioP1;P1;durP2;ratioP2;P2;SDS_P1;SDS_P2;PMS_P1;PMS_P2;Temp;Humidity;BMP_temperature;BMP_pressure;BME280_temperature;BME280_humidity;BME280_pressure;Samples;Min_cycle;Max_cycle;Signal;HPM_P1;HPM_P2
2024/02/16 00:00:48;;;;;;;;;6.00;6.00;;;;;19.80;100.00;100346.59;2095957;28;46627;-55
2024/02/16 00:01:49;;;;;;;;;6.00;6.00;;;;;19.80;100.00;100338.50;2096098;28;46901;-53
2024/02/16 00:02:49;;;;;;;;;7.33;7.00;;;;;19.80;100.00;100341.22;2095917;28;46731;-53
2024/02/16 00:03:49;;;;;;;;;6.33;6.33;;;;;19.78;100.00;100340.44;2096297;28;46470;-52
2024/02/16 00:04:50;;;;;;;;;5.00;5.00;;;;;19.78;100.00;100342.28;2095348;28;46624;-49
2024/02/16 00:05:51;;;;;;;;;9.00;6.00;;;;;19.77;100.00;100333.34;2096216;28;46417;-51
2024/02/16 00:06:51;;;;;;;;;6.50;6.50;;;;;19.77;100.00;100327.94;2096329;28;46618;-53
2024/02/16 00:07:53;;;;;;;;;7.00;5.00;;;;;19.78;100.00;100348.53;2094325;28;46243;-53
2024/02/16 00:08:53;;;;;;;;;7.00;7.00;;;;;19.77;100.00;100327.09;2096296;28;46404;-51
2024/02/16 00:09:53;;;;;;;;;6.00;6.00;;;;;19.75;100.00;100337.97;2095877;28;46351;-49
2024/02/16 00:10:54;;;;;;;;;6.00;5.00;;;;;19.75;100.00;100334.41;2095865;28;46954;-54
2024/02/16 00:11:54;;;;;;;;;7.67;6.33;;;;;19.75;100.00;100331.72;2095769;28;46278;-53
2024/02/16 00:12:55;;;;;;;;;8.00;6.00;;;;;19.75;100.00;100332.59;2089560;28;45708;-54
2024/02/16 00:13:55;;;;;;;;;5.00;5.00;;;;;19.75;100.00;100329.88;2090028;28;45859;-53
2024/02/16 00:14:55;;;;;;;;;8.33;7.00;;;;;19.76;100.00;100337.00;2089263;28;46919;-53
2024/02/16 00:15:57;;;;;;;;;8.33;6.67;;;;;19.76;100.00;100331.63;2090020;28;46547;-53
2024/02/16 00:16:57;;;;;;;;;6.50;4.75;;;;;19.77;100.00;100333.34;2096316;28;46556;-50
2024/02/16 00:17:58;;;;;;;;;7.33;7.00;;;;;19.77;100.00;100336.03;2096095;28;46617;-52
2024/02/16 00:18:59;;;;;;;;;6.25;6.00;;;;;19.77;100.00;100335.16;2096057;28;45734;-51
2024/02/16 00:19:59;;;;;;;;;7.00;6.00;;;;;19.79;100.00;100344.00;2095971;28;46701;-51
2024/02/16 00:21:01;;;;;;;;;7.33;7.33;;;;;19.78;100.00;100340.44;2095340;28;46652;-53
2024/02/16 00:22:02;;;;;;;;;9.50;9.50;;;;;19.81;100.00;100342.06;2096240;28;47296;-53
2024/02/16 00:23:02;;;;;;;;;6.00;6.00;;;;;19.80;100.00;100335.81;2101747;28;47229;-49
2024/02/16 00:24:03;;;;;;;;;6.67;6.67;;;;;19.79;100.00;100336.78;2100422;28;46242;-53
2024/02/16 00:25:03;;;;;;;;;6.00;6.00;;;;;19.79;100.00;100334.09;2090651;28;47139;-51
2024/02/16 00:26:07;;;;;;;;;7.33;7.33;;;;;19.79;100.00;100333.22;2090540;28;46573;-53
2024/02/16 00:27:07;;;;;;;;;6.25;6.25;;;;;19.79;100.00;100331.41;2096044;28;46911;-51
2024/02/16 00:28:08;;;;;;;;;6.33;6.00;;;;;19.81;100.00;100334.00;2095953;28;46597;-53
2024/02/16 00:29:09;;;;;;;;;6.00;6.00;;;;;19.80;100.00;100329.56;2093828;28;46774;-52
2024/02/16 00:30:10;;;;;;;;;6.67;6.00;;;;;19.82;100.00;100333.03;2095828;28;46322;-54
2024/02/16 00:31:10;;;;;;;;;6.75;6.75;;;;;19.82;100.00;100324.94;2095773;28;46320;-52
2024/02/16 00:32:10;;;;;;;;;6.33;6.00;;;;;19.81;100.00;100325.91;2103384;27;46289;-54
2024/02/16 00:33:11;;;;;;;;;4.00;4.00;;;;;19.81;100.00;100336.69;2106387;27;46991;-53
2024/02/16 00:34:11;;;;;;;;;4.67;4.67;;;;;19.80;100.00;100330.44;2100734;28;46797;-49
2024/02/16 00:35:12;;;;;;;;;7.00;7.00;;;;;19.80;100.00;100335.81;2098980;27;46484;-53
2024/02/16 00:36:12;;;;;;;;;4.67;4.67;;;;;19.80;100.00;100334.97;2108025;27;45186;-52
2024/02/16 00:37:12;;;;;;;;;4.33;4.33;;;;;19.82;100.00;100335.72;2108336;27;46324;-51
2024/02/16 00:38:13;;;;;;;;;5.33;5.00;;;;;19.81;100.00;100332.16;2108209;27;46623;-51
2024/02/16 00:39:13;;;;;;;;;4.33;4.33;;;;;19.83;100.00;100342.84;2108402;27;45842;-51
2024/02/16 00:40:14;;;;;;;;;4.00;4.00;;;;;19.84;100.00;100336.50;2107551;27;46978;-51
2024/02/16 00:41:19;;;;;;;;;6.00;5.67;;;;;19.84;100.00;100344.59;2105611;27;46477;-49
2024/02/16 00:42:20;;;;;;;;;6.75;6.25;;;;;19.83;100.00;100343.72;2108208;27;46663;-54
2024/02/16 00:43:20;;;;;;;;;6.67;6.00;;;;;19.82;100.00;100343.78;2107762;27;45611;-52
2024/02/16 00:44:20;;;;;;;;;6.00;5.00;;;;;19.84;100.00;100348.13;2107704;27;46244;-51
2024/02/16 00:45:21;;;;;;;;;6.00;6.00;;;;;19.85;100.00;100346.31;2108226;27;46142;-53
2024/02/16 00:46:22;;;;;;;;;5.00;5.00;;;;;19.84;100.00;100350.84;2090155;28;46126;-52
2024/02/16 00:47:23;;;;;;;;;5.25;5.25;;;;;19.86;100.00;100343.50;2091096;27;46416;-53
2024/02/16 00:48:24;;;;;;;;;5.67;5.67;;;;;19.85;100.00;100344.47;2108220;27;46278;-52
2024/02/16 00:49:24;;;;;;;;;2.33;2.33;;;;;19.84;100.00;100348.13;2090455;28;46443;-50
2024/02/16 00:50:25;;;;;;;;;5.67;5.67;;;;;19.85;100.00;100352.56;2083529;28;46618;-52
2024/02/16 00:51:25;;;;;;;;;4.75;4.75;;;;;19.85;100.00;100354.38;2099037;28;46997;-52
2024/02/16 00:52:26;;;;;;;;;5.00;5.00;;;;;19.85;100.00;100360.63;2105866;27;46686;-53
2024/02/16 00:53:26;;;;;;;;;6.00;6.00;;;;;19.86;100.00;100348.03;2107123;27;46394;-51
2024/02/16 00:54:27;;;;;;;;;4.00;4.00;;;;;19.85;100.00;100346.31;2098774;28;46231;-51
2024/02/16 00:55:27;;;;;;;;;6.00;6.00;;;;;19.84;100.00;100353.53;2098828;28;46843;-51
2024/02/16 00:56:27;;;;;;;;;5.00;5.00;;;;;19.85;100.00;100357.09;2107658;27;46733;-51
2024/02/16 00:57:28;;;;;;;;;5.00;5.00;;;;;19.85;100.00;100352.56;2105105;27;46135;-51
2024/02/16 00:58:28;;;;;;;;;4.33;4.00;;;;;19.85;100.00;100357.94;2107823;27;46544;-52
2024/02/16 00:59:29;;;;;;;;;5.00;5.00;;;;;19.87;100.00;100363.22;2106817;27;46406;-51
2024/02/16 01:00:30;;;;;;;;;5.67;4.33;;;;;19.87;100.00;100364.09;2099259;28;46247;-48
2024/02/16 01:01:30;;;;;;;;;5.00;5.00;;;;;19.87;100.00;100358.69;2098483;28;45221;-54
2024/02/16 01:02:31;;;;;;;;;5.33;5.00;;;;;19.86;100.00;100358.81;2107735;27;46379;-52
2024/02/16 01:03:32;;;;;;;;;5.67;5.67;;;;;19.87;100.00;100360.53;2107613;27;46194;-52
2024/02/16 01:04:33;;;;;;;;;3.00;3.00;;;;;19.86;100.00;100358.81;2107236;27;46400;-52
2024/02/16 01:05:33;;;;;;;;;5.50;4.75;;;;;19.87;100.00;100357.84;2108147;27;46218;-51
2024/02/16 01:06:33;;;;;;;;;4.00;4.00;;;;;19.88;100.00;100357.72;2108299;27;48221;-50
2024/02/16 01:07:34;;;;;;;;;5.33;5.33;;;;;19.90;100.00;100361.19;2106993;27;46643;-52
2024/02/16 01:08:34;;;;;;;;;5.00;5.00;;;;;19.91;100.00;100364.75;2107616;27;46903;-49
2024/02/16 01:09:35;;;;;;;;;21.25;20.25;;;;;19.91;100.00;100356.66;2107258;27;46251;-52
2024/02/16 01:10:35;;;;;;;;;12.67;12.00;;;;;19.91;100.00;100368.28;2106734;27;46744;-50
2024/02/16 01:11:35;;;;;;;;;13.00;12.67;;;;;19.91;100.00;100372.81;2108627;27;46287;-53
2024/02/16 01:12:36;;;;;;;;;7.00;6.00;;;;;19.91;100.00;100364.75;2106658;27;46544;-50
2024/02/16 01:13:36;;;;;;;;;5.00;5.00;;;;;19.89;100.00;100362.16;2105354;27;46656;-50
2024/02/16 01:14:37;;;;;;;;;4.67;4.00;;;;;19.86;100.00;100366.88;2108328;27;46733;-53
2024/02/16 01:15:37;;;;;;;;;5.67;5.00;;;;;19.85;100.00;100365.16;2108084;27;46632;-51
2024/02/16 01:16:37;;;;;;;;;5.33;5.00;;;;;19.89;100.00;100372.06;2088663;28;46560;-56
2024/02/16 01:17:39;;;;;;;;;5.00;5.00;;;;;19.88;100.00;100363.13;2089524;28;46428;-55
2024/02/16 01:18:39;;;;;;;;;5.00;5.00;;;;;19.90;100.00;100365.72;2107017;27;46651;-51
2024/02/16 01:19:40;;;;;;;;;5.67;5.00;;;;;19.89;100.00;100367.53;2107951;27;45773;-53
2024/02/16 01:20:40;;;;;;;;;5.33;5.33;;;;;19.88;100.00;100371.19;2108048;27;46929;-49
2024/02/16 01:21:41;;;;;;;;;4.00;4.00;;;;;19.89;100.00;100364.84;2108017;27;45041;-49
2024/02/16 01:22:41;;;;;;;;;5.00;5.00;;;;;19.91;100.00;100365.59;2108232;27;46722;-54
2024/02/16 01:23:41;;;;;;;;;4.00;4.00;;;;;19.90;100.00;100363.88;2099003;28;46261;-52
2024/02/16 01:24:42;;;;;;;;;4.33;4.33;;;;;19.90;100.00;100369.25;2099085;28;46601;-52
2024/02/16 01:25:42;;;;;;;;;3.67;3.67;;;;;19.91;100.00;100370.13;2107869;27;46911;-52
2024/02/16 01:26:42;;;;;;;;;4.33;4.33;;;;;19.91;100.00;100375.50;2108184;27;47200;-53
2024/02/16 01:27:43;;;;;;;;;6.33;6.00;;;;;19.92;100.00;100366.47;2107603;27;46619;-53
2024/02/16 01:28:43;;;;;;;;;4.00;4.00;;;;;19.91;100.00;100370.13;2107910;27;46795;-54
2024/02/16 01:29:43;;;;;;;;;2.00;2.00;;;;;19.92;100.00;100371.84;2106867;27;46284;-53
2024/02/16 01:30:44;;;;;;;;;3.00;3.00;;;;;19.92;100.00;100369.16;2105500;27;46862;-52
2024/02/16 01:31:45;;;;;;;;;5.67;4.67;;;;;19.93;100.00;100366.34;2108232;27;46739;-50
2024/02/16 01:32:45;;;;;;;;;7.00;4.50;;;;;19.92;100.00;100364.63;2112046;27;46504;-52
2024/02/16 01:33:46;;;;;;;;;5.00;5.00;;;;;19.93;100.00;100371.75;2111930;27;45724;-55
2024/02/16 01:34:49;;;;;;;;;4.00;4.00;;;;;19.95;100.00;100368.97;2111601;27;46315;-52
2024/02/16 01:35:49;;;;;;;;;4.00;4.00;;;;;19.93;100.00;100366.34;2112776;27;46498;-52
2024/02/16 01:36:50;;;;;;;;;4.33;4.33;;;;;19.88;100.00;100365.81;2099381;28;46462;-50
2024/02/16 01:37:50;;;;;;;;;5.67;5.00;;;;;19.87;100.00;100369.47;2099020;28;46426;-51
2024/02/16 01:38:50;;;;;;;;;4.33;4.33;;;;;19.87;100.00;100368.63;2111754;27;46378;-52
2024/02/16 01:39:51;;;;;;;;;6.00;4.00;;;;;19.85;100.00;100370.53;2111166;27;46643;-53
2024/02/16 01:40:51;;;;;;;;;5.67;4.33;;;;;19.84;100.00;100367.00;2112368;27;46530;-53
2024/02/16 01:41:51;;;;;;;;;4.00;4.00;;;;;19.84;100.00;100367.00;2111806;27;46665;-52
2024/02/16 01:42:55;;;;;;;;;5.00;5.00;;;;;19.84;100.00;100369.69;2112111;27;46207;-52
2024/02/16 01:43:56;;;;;;;;;4.25;4.25;;;;;19.87;100.00;100372.16;2112293;27;46677;-50
2024/02/16 01:44:56;;;;;;;;;4.33;4.33;;;;;19.87;100.00;100361.41;2111368;27;46235;-49
2024/02/16 01:45:58;;;;;;;;;5.00;5.00;;;;;19.87;100.00;100363.22;2112400;27;46606;-51
2024/02/16 01:46:59;;;;;;;;;6.25;5.75;;;;;19.87;100.00;100368.63;2112068;27;46925;-52
2024/02/16 01:47:59;;;;;;;;;3.67;3.67;;;;;19.87;100.00;100371.31;2108777;27;46771;-54
2024/02/16 01:49:00;;;;;;;;;5.00;5.00;;;;;19.86;100.00;100367.75;2112172;27;45249;-51
2024/02/16 01:50:02;;;;;;;;;5.00;4.00;;;;;19.87;100.00;100374.00;2111666;27;46744;-51
2024/02/16 01:51:04;;;;;;;;;4.00;4.00;;;;;19.87;100.00;100371.31;2110837;27;46904;-52
2024/02/16 01:52:04;;;;;;;;;5.00;4.00;;;;;19.86;100.00;100372.28;2112131;27;47120;-51
2024/02/16 01:53:05;;;;;;;;;4.33;4.00;;;;;19.85;100.00;100373.25;2111131;27;46219;-53
2024/02/16 01:54:06;;;;;;;;;5.33;5.33;;;;;19.85;100.00;100374.09;2111556;27;46783;-52
2024/02/16 01:55:10;;;;;;;;;4.00;4.00;;;;;19.85;100.00;100378.63;2111730;27;46878;-51
2024/02/16 01:56:10;;;;;;;;;3.25;3.25;;;;;19.87;100.00;100390.16;2080984;28;46505;-50
2024/02/16 01:57:12;;;;;;;;;5.67;4.67;;;;;19.85;100.00;100373.25;2081218;28;46429;-52
2024/02/16 01:58:13;;;;;;;;;4.75;4.00;;;;;19.85;100.00;100376.78;2111889;27;45992;-54
2024/02/16 01:59:13;;;;;;;;;3.00;3.00;;;;;19.85;100.00;100375.94;2111611;27;46645;-50
2024/02/16 02:00:17;;;;;;;;;6.00;5.00;;;;;19.85;100.00;100387.56;2112300;27;46210;-49
2024/02/16 02:01:17;;;;;;;;;4.00;4.00;;;;;19.84;100.00;100369.69;2111351;27;46368;-54
2024/02/16 02:02:18;;;;;;;;;4.00;4.00;;;;;19.83;100.00;100378.72;2111471;27;46233;-53
2024/02/16 02:03:18;;;;;;;;;4.67;4.00;;;;;19.85;100.00;100378.63;2112124;27;46559;-51
2024/02/16 02:04:19;;;;;;;;;4.00;4.00;;;;;19.85;100.00;100370.53;2111465;27;46453;-52
2024/02/16 02:05:20;;;;;;;;;4.00;4.00;;;;;19.86;100.00;100369.56;2108673;27;46530;-53
2024/02/16 02:06:21;;;;;;;;;4.00;4.00;;;;;19.85;100.00;100368.72;2111970;27;46935;-53
2024/02/16 02:07:26;;;;;;;;;4.00;4.00;;;;;19.86;100.00;100370.44;2111712;27;47380;-55
2024/02/16 02:08:26;;;;;;;;;4.75;4.75;;;;;19.85;100.00;100381.31;2111903;27;46386;-53
2024/02/16 02:09:27;;;;;;;;;4.33;4.00;;;;;19.87;100.00;100371.31;2112045;27;46221;-55
2024/02/16 02:10:27;;;;;;;;;4.00;4.00;;;;;19.85;100.00;100366.03;2111923;27;47157;-51
2024/02/16 02:11:27;;;;;;;;;6.00;5.00;;;;;19.87;100.00;100368.63;2111583;27;46658;-53
2024/02/16 02:12:28;;;;;;;;;3.50;3.50;;;;;19.86;100.00;100369.56;2111600;27;46785;-52
2024/02/16 02:13:29;;;;;;;;;4.00;4.00;;;;;19.85;100.00;100366.03;2111684;27;46691;-53
2024/02/16 02:14:29;;;;;;;;;5.50;5.50;;;;;19.85;100.00;100378.63;2111965;27;46296;-51
2024/02/16 02:15:29;;;;;;;;;2.33;2.33;;;;;19.86;100.00;100372.28;2110955;27;46131;-52
2024/02/16 02:16:30;;;;;;;;;7.33;5.00;;;;;19.85;100.00;100373.25;2111784;27;46395;-52
2024/02/16 02:17:30;;;;;;;;;4.67;4.67;;;;;19.84;100.00;100376.91;2112089;27;47664;-53
2024/02/16 02:18:30;;;;;;;;;6.00;4.00;;;;;19.83;100.00;100380.56;2110880;27;46480;-50
2024/02/16 02:19:31;;;;;;;;;4.00;4.00;;;;;19.85;100.00;100384.00;2111657;27;46216;-51
2024/02/16 02:20:31;;;;;;;;;5.00;5.00;;;;;19.84;100.00;100380.44;2111223;27;47789;-50
2024/02/16 02:21:31;;;;;;;;;3.67;3.67;;;;;19.85;100.00;100384.00;2108468;27;45885;-58
2024/02/16 02:22:32;;;;;;;;;5.00;5.00;;;;;19.85;100.00;100376.78;2110843;27;46385;-50
2024/02/16 02:23:33;;;;;;;;;4.00;4.00;;;;;19.84;100.00;100383.16;2111407;27;46633;-52
2024/02/16 02:24:34;;;;;;;;;5.00;5.00;;;;;19.84;100.00;100382.28;2111919;27;46886;-54
2024/02/16 02:25:34;;;;;;;;;4.67;4.67;;;;;19.84;100.00;100382.28;2111917;27;46288;-52
2024/02/16 02:26:35;;;;;;;;;4.00;4.00;;;;;19.84;100.00;100384.97;2106921;27;46522;-52
2024/02/16 02:27:35;;;;;;;;;3.67;3.67;;;;;19.82;100.00;100384.19;2110826;27;46244;-52
2024/02/16 02:28:35;;;;;;;;;4.00;4.00;;;;;19.79;100.00;100374.47;2111750;27;46877;-51
2024/02/16 02:29:36;;;;;;;;;4.00;4.00;;;;;19.81;100.00;100375.25;2111642;27;46621;-52
2024/02/16 02:30:37;;;;;;;;;4.67;4.00;;;;;19.81;100.00;100377.94;2111580;27;46619;-49
2024/02/16 02:31:38;;;;;;;;;5.75;4.75;;;;;19.82;100.00;100389.56;2110709;27;46704;-53
2024/02/16 02:32:38;;;;;;;;;5.00;5.00;;;;;19.83;100.00;100383.25;2112111;27;45965;-53
2024/02/16 02:33:39;;;;;;;;;5.00;4.00;;;;;19.83;100.00;100388.63;2111225;27;46887;-52
2024/02/16 02:34:39;;;;;;;;;5.00;4.00;;;;;19.83;100.00;100383.25;2111661;27;46333;-53
2024/02/16 02:35:40;;;;;;;;;5.67;4.67;;;;;19.83;100.00;100386.81;2112814;27;46204;-53
2024/02/16 02:36:41;;;;;;;;;2.33;2.33;;;;;19.81;100.00;100388.72;2110274;27;47078;-52
2024/02/16 02:37:41;;;;;;;;;5.00;5.00;;;;;19.81;100.00;100391.41;2111210;27;46200;-50
2024/02/16 02:38:41;;;;;;;;;5.00;4.67;;;;;19.81;100.00;100393.22;2109244;27;46197;-50
2024/02/16 02:39:42;;;;;;;;;6.00;6.00;;;;;19.82;100.00;100386.88;2111515;27;46212;-51
2024/02/16 02:40:42;;;;;;;;;6.00;4.00;;;;;19.83;100.00;100391.31;2098876;28;46278;-52
2024/02/16 02:41:43;;;;;;;;;5.33;5.00;;;;;19.82;100.00;100384.19;2098672;28;46233;-52
2024/02/16 02:42:43;;;;;;;;;5.00;5.00;;;;;19.83;100.00;100385.94;2098248;28;46435;-50
2024/02/16 02:43:44;;;;;;;;;5.00;5.00;;;;;19.80;100.00;100386.97;2098228;28;46423;-52
2024/02/16 02:44:49;;;;;;;;;6.00;6.00;;;;;19.82;100.00;100389.56;2110832;27;45586;-53
2024/02/16 02:45:50;;;;;;;;;6.00;5.25;;;;;19.82;100.00;100389.56;2111076;27;46718;-52
2024/02/16 02:46:51;;;;;;;;;4.33;4.33;;;;;19.83;100.00;100392.19;2111134;27;46353;-49
2024/02/16 02:47:52;;;;;;;;;7.50;6.50;;;;;19.85;100.00;100389.41;2111769;27;46905;-51
2024/02/16 02:48:52;;;;;;;;;5.00;3.00;;;;;19.81;100.00;100394.09;2111127;27;46255;-48
2024/02/16 02:49:52;;;;;;;;;5.00;5.00;;;;;19.81;100.00;100395.91;2111684;27;46537;-50
2024/02/16 02:50:53;;;;;;;;;5.00;5.00;;;;;19.81;100.00;100396.78;2098008;28;46332;-51
2024/02/16 02:51:53;;;;;;;;;6.67;6.00;;;;;19.81;100.00;100393.22;2099264;28;46471;-52
2024/02/16 02:52:53;;;;;;;;;4.67;4.00;;;;;19.82;100.00;100394.97;2105789;27;46315;-49
2024/02/16 02:53:54;;;;;;;;;4.67;4.67;;;;;19.81;100.00;100396.78;2106796;27;46402;-52
2024/02/16 02:54:54;;;;;;;;;6.00;5.00;;;;;19.81;100.00;100395.91;2111156;27;46768;-48
2024/02/16 02:55:54;;;;;;;;;4.00;4.00;;;;;19.82;100.00;100394.97;2109671;27;46949;-53
2024/02/16 02:56:55;;;;;;;;;5.00;5.00;;;;;19.81;100.00;100390.53;2111305;27;46293;-52
2024/02/16 02:57:55;;;;;;;;;6.00;6.00;;;;;19.81;100.00;100391.41;2111564;27;46686;-52
2024/02/16 02:58:55;;;;;;;;;4.00;4.00;;;;;19.80;100.00;100384.28;2111621;27;46654;-53
2024/02/16 03:00:05;;;;;;;;;5.00;4.00;;;;;19.81;100.00;100391.41;2111494;27;46348;-50
2024/02/16 03:01:07;;;;;;;;;4.25;4.25;;;;;19.79;100.00;100393.34;2112067;27;46608;-51
2024/02/16 03:02:08;;;;;;;;;7.50;6.25;;;;;19.80;100.00;100396.88;2111469;27;46531;-52
2024/02/16 03:03:08;;;;;;;;;3.33;3.33;;;;;19.83;100.00;100400.28;2111478;27;45566;-54
2024/02/16 03:04:09;;;;;;;;;4.67;4.67;;;;;19.88;100.00;100399.97;2098583;28;47125;-53
2024/02/16 03:05:09;;;;;;;;;6.33;5.00;;;;;19.85;100.00;100406.41;2098600;28;46861;-50
2024/02/16 03:06:10;;;;;;;;;4.67;4.67;;;;;19.85;100.00;100403.72;2110892;27;46663;-49
2024/02/16 03:07:10;;;;;;;;;4.67;4.33;;;;;19.83;100.00;100405.66;2111279;27;46366;-53
2024/02/16 03:08:10;;;;;;;;;5.00;5.00;;;;;19.83;100.00;100407.50;2111679;27;46172;-54
2024/02/16 03:09:14;;;;;;;;;7.00;5.67;;;;;19.81;100.00;100407.56;2110961;27;46165;-49
2024/02/16 03:10:20;;;;;;;;;5.25;5.25;;;;;19.80;100.00;100407.66;2111203;27;46652;-50
2024/02/16 03:11:21;;;;;;;;;6.00;4.75;;;;;19.78;100.00;100401.50;2111677;27;46745;-52
2024/02/16 03:12:22;;;;;;;;;5.67;4.67;;;;;19.78;100.00;100409.59;2084716;28;46491;-52
2024/02/16 03:13:22;;;;;;;;;5.33;5.33;;;;;19.75;100.00;100405.28;2084037;28;46442;-51
2024/02/16 03:14:23;;;;;;;;;5.00;5.00;;;;;19.76;100.00;100407.00;2110145;27;47034;-52
2024/02/16 03:15:23;;;;;;;;;5.00;5.00;;;;;19.76;100.00;100409.69;2111612;27;46592;-50
2024/02/16 03:16:23;;;;;;;;;5.00;5.00;;;;;19.77;100.00;100413.25;2111834;27;46432;-53
2024/02/16 03:17:23;;;;;;;;;4.67;3.67;;;;;19.77;100.00;100411.41;2098831;28;46291;-51
2024/02/16 03:18:24;;;;;;;;;4.00;4.00;;;;;19.76;100.00;100416.91;2098819;28;46339;-52
2024/02/16 03:19:24;;;;;;;;;6.00;6.00;;;;;19.76;100.00;100415.06;2110408;27;46952;-53
2024/02/16 03:20:25;;;;;;;;;4.33;4.33;;;;;19.77;100.00;100421.31;2111524;27;46611;-51
2024/02/16 03:21:25;;;;;;;;;5.00;5.00;;;;;19.76;100.00;100417.78;2111992;27;46641;-51
2024/02/16 03:22:26;;;;;;;;;6.00;5.00;;;;;19.78;100.00;100414.97;2110338;27;47330;-49
2024/02/16 03:23:26;;;;;;;;;6.67;5.67;;;;;19.76;100.00;100417.78;2111700;27;46520;-52
2024/02/16 03:24:26;;;;;;;;;6.00;6.00;;;;;19.76;100.00;100419.59;2111751;27;46284;-50
2024/02/16 03:25:27;;;;;;;;;4.33;4.33;;;;;19.77;100.00;100426.72;2110550;27;46627;-53
2024/02/16 03:26:27;;;;;;;;;4.00;4.00;;;;;19.77;100.00;100432.09;2111385;27;46676;-54
2024/02/16 03:27:27;;;;;;;;;7.33;6.00;;;;;19.77;100.00;100421.31;2111373;27;46484;-54
2024/02/16 03:28:28;;;;;;;;;5.33;4.33;;;;;19.78;100.00;100433.81;2111206;27;46643;-51
2024/02/16 03:29:28;;;;;;;;;5.33;5.33;;;;;19.78;100.00;100429.31;2109784;27;46355;-52
2024/02/16 03:30:28;;;;;;;;;5.00;3.67;;;;;19.78;100.00;100421.22;2109528;27;45077;-53
2024/02/16 03:31:29;;;;;;;;;6.00;6.00;;;;;19.78;100.00;100431.13;2111506;27;46676;-52
2024/02/16 03:32:31;;;;;;;;;7.75;6.50;;;;;19.79;100.00;100432.84;2107351;27;46698;-52
2024/02/16 03:33:31;;;;;;;;;3.00;3.00;;;;;19.80;100.00;100426.50;2105882;27;46023;-51
2024/02/16 03:34:31;;;;;;;;;6.00;6.00;;;;;19.81;100.00;100422.84;2107023;27;46236;-51
2024/02/16 03:35:32;;;;;;;;;6.67;6.00;;;;;19.80;100.00;100419.28;2106769;27;46605;-52
2024/02/16 03:36:32;;;;;;;;;6.00;6.00;;;;;19.83;100.00;100423.63;2106796;27;46614;-52
2024/02/16 03:37:33;;;;;;;;;4.67;4.67;;;;;19.83;100.00;100426.34;2107888;27;46196;-54
2024/02/16 03:38:33;;;;;;;;;5.00;4.00;;;;;19.83;100.00;100420.94;2105932;27;46438;-55
2024/02/16 03:39:34;;;;;;;;;4.00;4.00;;;;;19.83;100.00;100423.63;2105972;27;46420;-53
2024/02/16 03:40:34;;;;;;;;;4.67;4.00;;;;;19.84;100.00;100430.75;2099545;28;46559;-53
2024/02/16 03:41:34;;;;;;;;;3.33;3.33;;;;;19.84;100.00;100428.06;2099914;28;46705;-54
2024/02/16 03:42:35;;;;;;;;;5.00;3.33;;;;;19.83;100.00;100427.19;2107863;27;46482;-51
2024/02/16 03:43:36;;;;;;;;;5.00;4.00;;;;;19.81;100.00;100429.09;2108633;27;46640;-53
2024/02/16 03:44:36;;;;;;;;;4.00;4.00;;;;;19.83;100.00;100429.88;2107534;27;46605;-53
2024/02/16 03:45:36;;;;;;;;;5.00;5.00;;;;;19.82;100.00;100438.03;2108820;27;46823;-52
2024/02/16 03:46:37;;;;;;;;;5.67;5.00;;;;;19.84;100.00;100436.13;2106038;27;46155;-54
2024/02/16 03:47:40;;;;;;;;;6.00;4.33;;;;;19.84;100.00;100433.44;2108510;27;46987;-53
2024/02/16 03:48:41;;;;;;;;;5.00;5.00;;;;;19.83;100.00;100431.72;2108078;27;46136;-51
2024/02/16 03:49:42;;;;;;;;;4.00;4.00;;;;;19.84;100.00;100430.75;2108046;27;46632;-53
2024/02/16 03:50:43;;;;;;;;;5.00;5.00;;;;;19.81;100.00;100423.72;2108394;27;46595;-54
2024/02/16 03:51:43;;;;;;;;;4.00;4.00;;;;;19.81;100.00;100422.84;2107879;27;46198;-53
2024/02/16 03:52:43;;;;;;;;;4.00;4.00;;;;;19.79;100.00;100425.66;2108178;27;46854;-53
2024/02/16 03:53:44;;;;;;;;;6.00;6.00;;;;;19.79;100.00;100416.69;2107851;27;46623;-51
2024/02/16 03:54:48;;;;;;;;;5.25;5.25;;;;;19.79;100.00;100412.19;2107842;27;46586;-53
2024/02/16 03:55:48;;;;;;;;;5.00;4.00;;;;;19.79;100.00;100412.19;2107582;27;46697;-55
2024/02/16 03:56:53;;;;;;;;;3.00;3.00;;;;;19.80;100.00;100416.59;2108718;27;46236;-51
2024/02/16 03:57:53;;;;;;;;;5.75;4.25;;;;;19.79;100.00;100419.41;2107664;27;46768;-52
2024/02/16 03:58:53;;;;;;;;;5.33;4.33;;;;;19.78;100.00;100420.38;2108427;27;46180;-54
2024/02/16 03:59:54;;;;;;;;;8.00;5.33;;;;;19.77;100.00;100413.25;2108912;27;45670;-52
2024/02/16 04:00:54;;;;;;;;;5.00;5.00;;;;;19.78;100.00;100414.97;2108613;27;45548;-53
2024/02/16 04:01:56;;;;;;;;;6.00;5.33;;;;;19.77;100.00;100418.63;2107208;27;46782;-50
2024/02/16 04:02:57;;;;;;;;;5.00;5.00;;;;;19.78;100.00;100423.06;2107984;27;46497;-52
2024/02/16 04:03:57;;;;;;;;;7.00;4.00;;;;;19.78;100.00;100434.69;2107518;27;46404;-51
2024/02/16 04:04:57;;;;;;;;;5.00;5.00;;;;;19.79;100.00;100435.56;2109341;27;46156;-53
2024/02/16 04:05:59;;;;;;;;;5.67;5.67;;;;;19.79;100.00;100435.56;2107818;27;46850;-52
2024/02/16 04:07:00;;;;;;;;;5.50;5.50;;;;;19.79;100.00;100438.25;2108857;27;46450;-54
2024/02/16 04:08:02;;;;;;;;;5.00;5.00;;;;;19.77;100.00;100440.19;2107544;27;46108;-50
2024/02/16 04:09:02;;;;;;;;;6.75;6.50;;;;;19.79;100.00;100436.41;2107976;27;46952;-49
2024/02/16 04:10:03;;;;;;;;;4.33;4.00;;;;;19.80;100.00;100434.59;2108407;27;46245;-54
2024/02/16 04:11:03;;;;;;;;;5.67;5.00;;;;;19.79;100.00;100435.56;2107713;27;46702;-53
2024/02/16 04:12:04;;;;;;;;;4.00;4.00;;;;;19.79;100.00;100435.56;2108405;27;46290;-54
2024/02/16 04:13:05;;;;;;;;;5.00;5.00;;;;;19.78;100.00;100433.81;2098627;28;46738;-52
2024/02/16 04:14:05;;;;;;;;;5.67;4.33;;;;;19.77;100.00;100441.03;2099623;28;46520;-53
2024/02/16 04:15:06;;;;;;;;;8.00;6.00;;;;;19.77;100.00;100437.47;2109651;27;46647;-52
2024/02/16 04:16:06;;;;;;;;;4.75;4.75;;;;;19.75;100.00;100442.09;2108208;27;46758;-52
2024/02/16 04:17:07;;;;;;;;;4.00;4.00;;;;;19.76;100.00;100443.84;2106882;27;46417;-53
2024/02/16 04:18:07;;;;;;;;;6.33;6.00;;;;;19.76;100.00;100441.16;2107804;27;46214;-50
2024/02/16 04:19:08;;;;;;;;;5.00;5.00;;;;;19.76;100.00;100452.78;2107684;27;46612;-52
2024/02/16 04:20:08;;;;;;;;;5.00;5.00;;;;;19.75;100.00;100448.34;2108047;27;46242;-51
2024/02/16 04:21:09;;;;;;;;;7.25;6.00;;;;;19.76;100.00;100438.44;2107316;27;46713;-53
2024/02/16 04:22:09;;;;;;;;;4.00;4.00;;;;;19.75;100.00;100453.75;2107585;27;46229;-52
2024/02/16 04:23:10;;;;;;;;;5.00;3.33;;;;;19.76;100.00;100457.28;2107960;27;46714;-52
2024/02/16 04:24:10;;;;;;;;;6.00;6.00;;;;;19.76;100.00;100455.47;2107676;27;46152;-52
2024/02/16 04:25:10;;;;;;;;;3.33;3.33;;;;;19.76;100.00;100446.53;2108270;27;46168;-53
2024/02/16 04:26:11;;;;;;;;;6.33;5.00;;;;;19.75;100.00;100453.75;2106119;27;46293;-53
2024/02/16 04:27:11;;;;;;;;;3.33;3.33;;;;;19.75;100.00;100461.81;2107335;27;46333;-51
2024/02/16 04:28:13;;;;;;;;;3.67;3.67;;;;;19.76;100.00;100466.25;2108200;27;46321;-52
2024/02/16 04:29:13;;;;;;;;;4.50;4.50;;;;;19.77;100.00;100467.97;2108123;27;46887;-51
2024/02/16 04:30:14;;;;;;;;;4.00;4.00;;;;;19.78;100.00;100463.44;2107781;27;46346;-50
2024/02/16 04:31:14;;;;;;;;;5.00;5.00;;;;;19.77;100.00;100472.50;2108725;27;46356;-50
2024/02/16 04:32:14;;;;;;;;;5.33;5.33;;;;;19.77;100.00;100464.41;2107894;27;46388;-50
2024/02/16 04:33:15;;;;;;;;;5.00;5.00;;;;;19.76;100.00;100471.63;2107562;27;46870;-54
2024/02/16 04:34:16;;;;;;;;;4.00;4.00;;;;;19.76;100.00;100471.63;2099301;28;46466;-53
2024/02/16 04:35:16;;;;;;;;;5.00;5.00;;;;;19.76;100.00;100473.44;2098031;27;46711;-52
2024/02/16 04:36:17;;;;;;;;;4.00;4.00;;;;;19.72;100.00;100480.88;2109101;27;46255;-51
2024/02/16 04:37:18;;;;;;;;;5.00;5.00;;;;;19.75;100.00;100474.41;2107692;27;46644;-50
2024/02/16 04:38:19;;;;;;;;;3.00;2.75;;;;;19.75;100.00;100477.97;2107593;27;46855;-51
2024/02/16 04:39:19;;;;;;;;;4.67;4.67;;;;;19.74;100.00;100484.31;2108648;27;46450;-53